createdAt,value
2022-12-14T00:01:55.505Z,76.92
2022-12-14T00:04:23.013Z,76.88
2022-12-14T00:06:52.098Z,76.83
2022-12-14T00:09:20.296Z,76.84
2022-12-14T00:11:49.877Z,76.81
2022-12-14T00:14:17.722Z,76.91
2022-12-14T00:16:45.529Z,76.91
2022-12-14T00:19:13.889Z,76.95
2022-12-14T00:21:41.763Z,76.96
2022-12-14T00:24:09.988Z,76.90
2022-12-14T00:26:38.117Z,76.92
2022-12-14T00:29:05.845Z,76.95
2022-12-14T00:31:33.629Z,76.96
2022-12-14T00:34:01.701Z,77.08
2022-12-14T00:36:30.910Z,77.01
2022-12-14T00:38:58.663Z,77.06
2022-12-14T00:41:26.506Z,77.09
2022-12-14T00:43:55.229Z,77.09
2022-12-14T00:46:23.015Z,77.05
2022-12-14T00:48:50.585Z,77.00
2022-12-14T00:51:18.726Z,77.01
2022-12-14T00:53:46.754Z,77.00
2022-12-14T00:56:14.409Z,76.98
2022-12-14T00:58:42.184Z,76.92
2022-12-14T01:01:15.400Z,76.85
2022-12-14T01:03:43.297Z,76.83
2022-12-14T01:06:22.808Z,76.84
2022-12-14T01:08:50.643Z,76.78
2022-12-14T01:11:18.816Z,76.95
2022-12-14T01:13:49.385Z,76.87
2022-12-14T01:16:18.128Z,76.97
2022-12-14T01:18:46.027Z,77.05
2022-12-14T01:21:20.381Z,77.11
2022-12-14T01:23:55.084Z,77.16
2022-12-14T01:26:25.190Z,77.26
2022-12-14T01:28:56.951Z,77.30
2022-12-14T01:31:29.251Z,77.38
2022-12-14T01:33:57.218Z,77.60
2022-12-14T01:36:31.554Z,77.74
2022-12-14T01:39:04.850Z,77.63
2022-12-14T01:41:52.495Z,77.57
2022-12-14T01:44:25.645Z,77.53
2022-12-14T01:47:12.245Z,77.43
2022-12-14T01:49:47.416Z,77.48
2022-12-14T01:52:26.240Z,77.50
2022-12-14T01:55:02.717Z,77.53
2022-12-14T01:57:38.975Z,77.42
2022-12-14T02:00:10.323Z,77.48
2022-12-14T02:02:41.633Z,77.48
2022-12-14T02:05:11.827Z,77.53
2022-12-14T02:07:43.411Z,77.62
2022-12-14T02:10:13.081Z,77.71
2022-12-14T02:12:48.479Z,77.80
2022-12-14T02:15:17.037Z,77.85
2022-12-14T02:17:47.219Z,77.77
2022-12-14T02:20:16.425Z,77.81
2022-12-14T02:23:23.262Z,77.83
2022-12-14T02:26:12.999Z,77.89
2022-12-14T02:29:21.443Z,77.96
2022-12-14T02:32:17.356Z,78.05
2022-12-14T02:34:54.561Z,78.14
2022-12-14T02:37:44.261Z,78.16
2022-12-14T02:41:12.418Z,78.11
2022-12-14T02:44:03.949Z,78.04
2022-12-14T02:47:02.402Z,77.99
2022-12-14T02:50:05.793Z,77.93
2022-12-14T02:52:38.925Z,77.98
2022-12-14T02:55:30.068Z,78.05
2022-12-14T02:58:18.114Z,78.10
2022-12-14T03:00:48.301Z,78.07
2022-12-14T03:03:16.505Z,78.06
2022-12-14T03:05:57.233Z,77.95
2022-12-14T03:08:28.812Z,77.84
2022-12-14T03:11:05.733Z,77.85
2022-12-14T03:13:38.843Z,77.79
2022-12-14T03:16:16.601Z,77.85
2022-12-14T03:19:04.756Z,77.91
2022-12-14T03:21:37.594Z,77.86
2022-12-14T03:24:09.757Z,77.82
2022-12-14T03:26:50.784Z,77.83
2022-12-14T03:29:32.717Z,77.76
2022-12-14T03:32:05.720Z,77.81
2022-12-14T03:34:37.912Z,77.86
2022-12-14T03:37:41.384Z,77.90
2022-12-14T03:40:13.447Z,77.98
2022-12-14T03:43:16.770Z,78.02
2022-12-14T03:46:17.418Z,78.06
2022-12-14T03:48:52.321Z,78.14
2022-12-14T03:51:37.650Z,77.99
2022-12-14T03:54:16.696Z,78.01
2022-12-14T03:56:58.777Z,78.15
2022-12-14T03:59:47.053Z,78.25
2022-12-14T04:02:34.021Z,78.27
2022-12-14T04:05:29.080Z,78.25
2022-12-14T04:08:08.769Z,78.27
2022-12-14T04:11:02.863Z,78.29
2022-12-14T04:13:59.659Z,78.25
2022-12-14T04:16:53.031Z,78.26
2022-12-14T04:19:26.210Z,78.32
2022-12-14T04:22:04.659Z,78.25
2022-12-14T04:25:05.409Z,78.20
2022-12-14T04:27:55.476Z,78.23
2022-12-14T04:30:23.416Z,78.26
2022-12-14T04:33:04.022Z,78.34
2022-12-14T04:35:41.372Z,78.37
2022-12-14T04:38:23.129Z,78.28
2022-12-14T04:40:57.862Z,78.24
2022-12-14T04:43:30.119Z,78.24
2022-12-14T04:46:08.164Z,78.14
2022-12-14T04:49:11.867Z,78.06
2022-12-14T04:52:21.691Z,78.03
2022-12-14T04:55:00.433Z,78.10
2022-12-14T04:57:50.182Z,78.17
2022-12-14T05:00:18.049Z,78.18
2022-12-14T05:03:18.790Z,78.14
2022-12-14T05:06:15.953Z,78.22
2022-12-14T05:09:17.973Z,78.27
2022-12-14T05:12:09.119Z,78.31
2022-12-14T05:14:52.650Z,78.32
2022-12-14T05:17:20.677Z,78.29
2022-12-14T05:19:51.318Z,78.19
2022-12-14T05:22:19.874Z,78.17
2022-12-14T05:24:51.554Z,78.20
2022-12-14T05:27:19.720Z,78.28
2022-12-14T05:29:48.219Z,78.26
2022-12-14T05:32:17.115Z,78.28
2022-12-14T05:34:46.051Z,78.24
2022-12-14T05:37:18.446Z,77.97
2022-12-14T05:39:46.059Z,78.20
2022-12-14T05:42:17.823Z,78.05
2022-12-14T05:44:48.608Z,77.99
2022-12-14T05:47:17.917Z,77.73
2022-12-14T05:49:49.283Z,77.66
2022-12-14T05:52:20.845Z,77.66
2022-12-14T05:54:48.830Z,77.73
2022-12-14T05:57:16.993Z,77.72
2022-12-14T05:59:45.068Z,77.74
2022-12-14T06:02:14.504Z,77.79
2022-12-14T06:04:43.768Z,77.87
2022-12-14T06:07:12.294Z,77.82
2022-12-14T06:09:41.417Z,77.81
2022-12-14T06:12:10.458Z,77.92
2022-12-14T06:14:38.540Z,78.39
2022-12-14T06:17:07.392Z,78.59
2022-12-14T06:19:37.425Z,78.62
2022-12-14T06:22:05.099Z,78.55
2022-12-14T06:24:34.888Z,78.20
2022-12-14T06:27:03.310Z,77.88
2022-12-14T06:29:31.471Z,77.58
2022-12-14T06:32:04.268Z,77.25
2022-12-14T06:34:38.098Z,76.69
2022-12-14T06:37:03.378Z,75.47
2022-12-14T06:39:31.861Z,74.66
2022-12-14T06:41:59.376Z,74.28
2022-12-14T06:44:29.925Z,74.54
2022-12-14T06:46:58.007Z,73.81
2022-12-14T06:49:26.050Z,73.21
2022-12-14T06:51:54.479Z,72.46
2022-12-14T06:54:24.742Z,72.29
2022-12-14T06:56:53.408Z,71.43
2022-12-14T06:59:22.671Z,71.78
2022-12-14T07:01:50.564Z,71.69
2022-12-14T07:04:20.746Z,70.75
2022-12-14T07:06:50.661Z,70.64
2022-12-14T07:09:20.805Z,70.00
2022-12-14T07:11:51.009Z,70.16
2022-12-14T07:14:18.863Z,70.25
2022-12-14T07:16:48.776Z,70.20
2022-12-14T07:19:18.516Z,69.68
2022-12-14T07:21:47.588Z,69.03
2022-12-14T07:24:16.307Z,70.10
2022-12-14T07:26:45.088Z,70.20
2022-12-14T07:29:15.780Z,69.83
2022-12-14T07:31:44.471Z,69.46
2022-12-14T07:34:15.060Z,69.46
2022-12-14T07:36:43.519Z,69.28
2022-12-14T07:39:15.097Z,69.17
2022-12-14T07:41:46.643Z,69.38
2022-12-14T07:44:17.154Z,69.73
2022-12-14T07:46:45.181Z,68.87
2022-12-14T07:49:13.071Z,68.05
2022-12-14T07:51:46.131Z,68.55
2022-12-14T07:54:14.601Z,68.83
2022-12-14T07:56:43.809Z,69.23
2022-12-14T07:59:15.695Z,68.96
2022-12-14T08:01:45.985Z,67.98
2022-12-14T08:04:20.022Z,67.02
2022-12-14T08:06:51.487Z,67.70
2022-12-14T08:09:19.697Z,66.97
2022-12-14T08:11:47.543Z,66.47
2022-12-14T08:14:18.566Z,65.73
2022-12-14T08:16:48.705Z,66.16
2022-12-14T08:19:17.713Z,65.31
2022-12-14T08:21:45.636Z,65.86
2022-12-14T08:24:16.215Z,66.30
2022-12-14T08:26:49.194Z,66.04
2022-12-14T08:29:15.008Z,66.37
2022-12-14T08:31:42.761Z,66.88
2022-12-14T08:34:10.488Z,67.77
2022-12-14T08:36:38.352Z,67.45
2022-12-14T08:39:09.824Z,67.09
2022-12-14T08:41:37.685Z,67.83
2022-12-14T08:44:06.094Z,67.82
2022-12-14T08:46:37.068Z,67.72
2022-12-14T08:49:06.925Z,68.21
2022-12-14T08:51:39.593Z,68.61
2022-12-14T08:54:07.547Z,67.99
2022-12-14T08:56:35.838Z,67.88
2022-12-14T08:59:06.805Z,67.00
2022-12-14T09:01:35.081Z,67.43
2022-12-14T09:04:05.890Z,65.96
2022-12-14T09:06:37.799Z,65.71
2022-12-14T09:09:13.590Z,65.09
2022-12-14T09:11:37.198Z,64.24
2022-12-14T09:14:06.853Z,64.59
2022-12-14T09:16:35.494Z,64.02
2022-12-14T09:19:06.219Z,62.73
2022-12-14T09:21:34.369Z,62.90
2022-12-14T09:24:02.056Z,61.92
2022-12-14T09:26:30.216Z,62.84
2022-12-14T09:28:58.294Z,63.26
2022-12-14T09:31:27.898Z,62.06
2022-12-14T09:33:56.280Z,62.17
2022-12-14T09:36:27.976Z,61.76
2022-12-14T09:38:57.096Z,62.03
2022-12-14T09:41:50.966Z,61.64
2022-12-14T09:44:29.804Z,61.81
2022-12-14T09:47:29.794Z,61.81
2022-12-14T09:50:09.068Z,62.36
2022-12-14T09:52:53.129Z,62.06
2022-12-14T09:55:28.734Z,62.28
2022-12-14T09:58:01.970Z,62.11
2022-12-14T10:00:35.394Z,62.13
2022-12-14T10:03:38.988Z,62.29
2022-12-14T10:06:44.165Z,62.39
2022-12-14T10:09:50.445Z,62.63
2022-12-14T10:12:36.363Z,61.77
2022-12-14T10:15:17.202Z,61.66
2022-12-14T10:18:41.398Z,60.36
2022-12-14T10:21:14.810Z,60.29
2022-12-14T10:23:54.075Z,59.41
2022-12-14T10:26:33.172Z,60.23
2022-12-14T10:29:12.356Z,60.35
2022-12-14T10:32:18.962Z,60.35
2022-12-14T10:34:48.932Z,60.36
2022-12-14T10:37:37.466Z,60.72
2022-12-14T10:40:33.595Z,61.40
2022-12-14T10:43:03.626Z,61.09
2022-12-14T10:46:10.039Z,60.78
2022-12-14T10:48:44.940Z,60.65
2022-12-14T10:51:38.012Z,59.39
2022-12-14T10:54:33.338Z,59.86
2022-12-14T10:57:01.403Z,58.55
2022-12-14T10:59:43.696Z,58.55
2022-12-14T11:02:14.765Z,58.69
2022-12-14T11:05:00.879Z,59.54
2022-12-14T11:07:38.973Z,59.06
2022-12-14T11:10:29.397Z,58.05
2022-12-14T11:13:15.088Z,55.68
2022-12-14T11:15:46.071Z,56.52
2022-12-14T11:18:25.420Z,56.51
2022-12-14T11:21:04.683Z,57.19
2022-12-14T11:23:44.660Z,56.91
2022-12-14T11:26:25.121Z,57.35
2022-12-14T11:28:56.203Z,58.01
2022-12-14T11:31:32.461Z,58.07
2022-12-14T11:34:03.993Z,58.33
2022-12-14T11:36:39.197Z,58.35
2022-12-14T11:39:24.273Z,57.81
2022-12-14T11:42:04.132Z,57.74
2022-12-14T11:44:38.335Z,58.12
2022-12-14T11:47:19.832Z,58.10
2022-12-14T11:49:57.446Z,57.90
2022-12-14T11:52:40.279Z,57.56
2022-12-14T11:55:26.847Z,57.91
2022-12-14T11:57:55.277Z,57.60
2022-12-14T12:00:46.611Z,58.06
2022-12-14T12:03:19.545Z,58.71
2022-12-14T12:05:48.885Z,58.95
2022-12-14T12:08:22.489Z,58.39
2022-12-14T12:10:54.378Z,58.94
2022-12-14T12:13:28.074Z,59.00
2022-12-14T12:16:01.771Z,58.22
2022-12-14T12:18:47.421Z,58.69
2022-12-14T12:21:26.804Z,59.19
2022-12-14T12:24:03.622Z,59.44
2022-12-14T12:27:01.058Z,59.78
2022-12-14T12:29:40.009Z,59.57
2022-12-14T12:32:40.649Z,58.54
2022-12-14T12:35:53.449Z,58.70
2022-12-14T12:38:54.919Z,59.26
2022-12-14T12:41:49.799Z,59.56
2022-12-14T12:44:26.510Z,59.30
2022-12-14T12:49:33.128Z,59.73
2022-12-14T12:52:09.629Z,59.52
2022-12-14T12:54:55.352Z,58.89
2022-12-14T12:57:27.612Z,59.00
2022-12-14T12:59:56.953Z,58.74
2022-12-14T13:02:38.680Z,58.97
2022-12-14T13:05:45.151Z,59.12
2022-12-14T13:07:54.690Z,59.22
2022-12-14T13:10:32.422Z,59.06
2022-12-14T13:13:11.784Z,59.03
2022-12-14T13:15:54.355Z,59.43
2022-12-14T13:18:59.698Z,58.97
2022-12-14T13:21:35.916Z,59.10
2022-12-14T13:24:07.037Z,59.26
2022-12-14T13:27:29.606Z,59.54
2022-12-14T13:30:23.941Z,59.36
2022-12-14T13:33:20.074Z,59.97
2022-12-14T13:36:07.682Z,60.20
2022-12-14T13:38:44.125Z,60.42
2022-12-14T13:41:23.200Z,60.99
2022-12-14T13:44:37.186Z,60.68
2022-12-14T13:47:07.430Z,61.55
2022-12-14T13:49:35.710Z,62.25
2022-12-14T13:52:05.910Z,62.62
2022-12-14T13:54:41.607Z,63.16
2022-12-14T13:57:18.441Z,63.11
2022-12-14T13:59:54.290Z,63.33
2022-12-14T14:02:37.036Z,63.03
2022-12-14T14:05:25.815Z,63.08
2022-12-14T14:08:39.205Z,62.99
2022-12-14T14:11:39.960Z,63.21
2022-12-14T14:14:22.660Z,62.91
2022-12-14T14:16:57.479Z,63.12
2022-12-14T14:19:28.068Z,63.12
2022-12-14T14:22:28.280Z,63.21
2022-12-14T14:25:08.953Z,63.13
2022-12-14T14:27:41.898Z,63.28
2022-12-14T14:30:35.652Z,63.37
2022-12-14T14:33:43.212Z,63.45
2022-12-14T14:35:38.111Z,63.51
2022-12-14T14:38:29.217Z,63.57
2022-12-14T14:41:19.059Z,63.58
2022-12-14T14:43:49.546Z,63.72
2022-12-14T14:46:23.154Z,63.72
2022-12-14T14:48:58.296Z,63.89
2022-12-14T14:51:30.280Z,63.89
2022-12-14T14:55:11.118Z,63.94
2022-12-14T14:56:53.508Z,63.95
2022-12-14T14:59:40.593Z,63.84
2022-12-14T15:02:31.169Z,63.72
2022-12-14T15:05:24.842Z,63.87
2022-12-14T15:07:32.510Z,63.95
2022-12-14T15:10:08.571Z,63.94
2022-12-14T15:12:53.512Z,64.05
2022-12-14T15:15:37.472Z,64.22
2022-12-14T15:18:24.129Z,64.30
2022-12-14T15:21:11.631Z,64.36
2022-12-14T15:23:52.605Z,64.44
2022-12-14T15:26:28.526Z,64.47
2022-12-14T15:29:00.029Z,64.49
2022-12-14T15:31:37.816Z,64.58
2022-12-14T15:34:06.349Z,64.66
2022-12-14T15:36:39.618Z,64.61
2022-12-14T15:39:27.893Z,64.67
2022-12-14T15:42:12.880Z,64.68
2022-12-14T15:44:51.074Z,64.45
2022-12-14T15:47:27.120Z,64.35
2022-12-14T15:50:15.781Z,64.22
2022-12-14T15:52:45.792Z,64.22
2022-12-14T15:55:36.922Z,64.31
2022-12-14T15:58:17.777Z,64.25
2022-12-14T16:00:51.066Z,64.38
2022-12-14T16:03:25.096Z,64.41
2022-12-14T16:05:54.877Z,64.34
2022-12-14T16:08:24.526Z,64.42
2022-12-14T16:10:56.220Z,64.54
2022-12-14T16:13:32.708Z,64.51
2022-12-14T16:16:11.138Z,64.52
2022-12-14T16:18:51.240Z,64.61
2022-12-14T16:21:35.382Z,64.69
2022-12-14T16:24:25.686Z,64.82
2022-12-14T16:27:01.974Z,64.91
2022-12-14T16:29:34.110Z,64.81
2022-12-14T16:32:14.875Z,64.67
2022-12-14T16:34:58.550Z,64.76
2022-12-14T16:37:32.613Z,64.74
2022-12-14T16:39:56.143Z,64.82
2022-12-14T16:42:26.864Z,64.92
2022-12-14T16:44:55.029Z,65.03
2022-12-14T16:47:37.184Z,65.24
2022-12-14T16:50:55.020Z,65.46
2022-12-14T16:53:25.275Z,65.49
2022-12-14T16:56:15.306Z,65.63
2022-12-14T16:58:54.744Z,65.81
2022-12-14T17:01:26.080Z,65.96
2022-12-14T17:04:02.103Z,66.03
2022-12-14T17:06:39.427Z,66.25
2022-12-14T17:09:20.166Z,66.28
2022-12-14T17:12:01.829Z,66.40
2022-12-14T17:14:32.211Z,66.49
2022-12-14T17:17:07.142Z,66.60
2022-12-14T17:19:39.302Z,66.64
2022-12-14T17:22:21.748Z,66.61
2022-12-14T17:24:51.768Z,66.61
2022-12-14T17:27:24.496Z,66.56
2022-12-14T17:29:58.442Z,66.50
2022-12-14T17:32:30.453Z,66.52
2022-12-14T17:35:08.059Z,66.54
2022-12-14T17:37:38.978Z,66.58
2022-12-14T17:40:11.653Z,66.56
2022-12-14T17:42:40.944Z,66.58
2022-12-14T17:45:16.995Z,66.45
2022-12-14T17:47:45.618Z,66.44
2022-12-14T17:50:15.136Z,66.38
2022-12-14T17:52:43.651Z,66.34
2022-12-14T17:55:24.542Z,66.39
2022-12-14T17:57:52.887Z,66.33
2022-12-14T18:00:43.808Z,66.29
2022-12-14T18:03:15.371Z,66.30
2022-12-14T18:05:49.178Z,66.22
2022-12-14T18:08:19.800Z,66.10
2022-12-14T18:11:00.659Z,66.12
2022-12-14T18:13:31.188Z,66.03
2022-12-14T18:16:02.348Z,65.76
2022-12-14T18:18:30.750Z,65.93
2022-12-14T18:21:02.604Z,65.98
2022-12-14T18:23:36.256Z,66.10
2022-12-14T18:26:04.832Z,66.05
2022-12-14T18:28:36.323Z,66.05
2022-12-14T18:31:08.437Z,66.24
2022-12-14T18:33:40.817Z,66.26
2022-12-14T18:36:12.299Z,66.40
2022-12-14T18:38:41.132Z,66.40
2022-12-14T18:41:11.317Z,66.50
2022-12-14T18:43:43.645Z,66.57
2022-12-14T18:46:09.401Z,66.63
2022-12-14T18:48:38.124Z,66.80
2022-12-14T18:51:06.977Z,66.92
2022-12-14T18:53:35.169Z,67.04
2022-12-14T18:56:07.265Z,67.23
2022-12-14T18:58:35.133Z,67.21
2022-12-14T19:01:02.763Z,67.41
2022-12-14T19:03:32.542Z,67.65
2022-12-14T19:08:42.620Z,67.95
2022-12-14T19:11:14.668Z,68.01
2022-12-14T19:13:46.239Z,67.98
2022-12-14T19:16:17.616Z,67.97
2022-12-14T19:18:45.102Z,67.87
2022-12-14T19:21:12.794Z,67.83
2022-12-14T19:23:40.317Z,67.67
2022-12-14T19:26:07.706Z,67.65
2022-12-14T19:28:35.497Z,67.65
2022-12-14T19:31:03.581Z,67.69
2022-12-14T19:33:31.749Z,67.70
2022-12-14T19:35:59.723Z,67.69
2022-12-14T19:38:28.022Z,67.68
2022-12-14T19:41:04.488Z,67.75
2022-12-14T19:43:32.854Z,67.83
2022-12-14T19:46:07.764Z,67.90
2022-12-14T19:48:35.766Z,67.82
2022-12-14T19:51:10.966Z,67.91
2022-12-14T19:53:40.197Z,67.91
2022-12-14T19:56:12.881Z,67.94
2022-12-14T19:58:40.755Z,68.00
2022-12-14T20:01:12.285Z,68.05
2022-12-14T20:03:41.097Z,67.96
2022-12-14T20:06:11.025Z,68.07
2022-12-14T20:08:38.812Z,67.95
2022-12-14T20:11:10.730Z,68.23
2022-12-14T20:13:40.493Z,68.37
2022-12-14T20:16:12.461Z,68.17
2022-12-14T20:18:40.423Z,68.14
2022-12-14T20:21:10.336Z,68.68
2022-12-14T20:23:39.217Z,68.66
2022-12-14T20:26:15.158Z,68.51
2022-12-14T20:28:45.342Z,68.48
2022-12-14T20:31:16.683Z,68.35
2022-12-14T20:33:45.225Z,68.94
2022-12-14T20:36:13.256Z,69.34
2022-12-14T20:38:41.017Z,68.98
2022-12-14T20:41:13.764Z,68.87
2022-12-14T20:43:43.642Z,68.72
2022-12-14T20:46:31.895Z,68.86
2022-12-14T20:49:03.588Z,68.69
2022-12-14T20:51:38.018Z,68.63
2022-12-14T20:54:10.962Z,68.51
2022-12-14T20:56:40.028Z,68.44
2022-12-14T20:59:10.588Z,68.51
2022-12-14T21:01:50.119Z,68.47
2022-12-14T21:04:16.979Z,68.53
2022-12-14T21:06:50.667Z,68.54
2022-12-14T21:09:19.252Z,68.59
2022-12-14T21:12:09.747Z,68.67
2022-12-14T21:14:46.132Z,68.75
2022-12-14T21:17:18.149Z,68.87
2022-12-14T21:19:47.102Z,69.00
2022-12-14T21:22:25.102Z,69.04
2022-12-14T21:25:03.033Z,69.11
2022-12-14T21:27:27.024Z,69.02
2022-12-14T21:29:55.550Z,68.92
2022-12-14T21:32:23.988Z,68.80
2022-12-14T21:34:52.173Z,68.70
2022-12-14T21:37:21.466Z,68.63
2022-12-14T21:39:55.079Z,68.65
2022-12-14T21:42:23.179Z,68.46
2022-12-14T21:44:53.563Z,68.31
2022-12-14T21:47:25.811Z,68.30
2022-12-14T21:50:05.143Z,68.13
2022-12-14T21:52:33.549Z,68.01
2022-12-14T21:55:03.257Z,67.96
2022-12-14T21:57:50.843Z,67.91
2022-12-14T22:00:19.802Z,67.76
2022-12-14T22:02:47.933Z,67.71
2022-12-14T22:05:17.010Z,67.78
2022-12-14T22:07:46.876Z,67.81
2022-12-14T22:10:17.657Z,67.84
2022-12-14T22:12:45.026Z,67.94
2022-12-14T22:15:12.902Z,68.02
2022-12-14T22:17:40.730Z,68.14
2022-12-14T22:20:10.487Z,68.19
2022-12-14T22:22:41.614Z,68.21
2022-12-14T22:25:12.374Z,68.62
2022-12-14T22:27:40.510Z,68.38
2022-12-14T22:30:11.676Z,68.60
2022-12-14T22:32:41.666Z,68.74
2022-12-14T22:35:10.318Z,69.15
2022-12-14T22:37:38.394Z,69.51
2022-12-14T22:40:08.579Z,68.95
2022-12-14T22:42:36.432Z,68.82
2022-12-14T22:45:05.829Z,68.70
2022-12-14T22:47:34.300Z,68.92
2022-12-14T22:50:02.607Z,68.74
2022-12-14T22:52:35.878Z,68.70
2022-12-14T22:55:05.112Z,68.54
2022-12-14T22:57:47.599Z,68.61
2022-12-14T23:00:16.483Z,68.63
2022-12-14T23:02:48.085Z,68.62
2022-12-14T23:05:17.576Z,68.68
2022-12-14T23:07:45.303Z,69.00
2022-12-14T23:10:31.409Z,68.81
2022-12-14T23:13:17.391Z,68.79
2022-12-14T23:16:04.759Z,68.56
2022-12-14T23:18:50.788Z,68.71
2022-12-14T23:21:37.219Z,68.70
2022-12-14T23:24:25.256Z,69.17
2022-12-14T23:27:14.263Z,69.07
2022-12-14T23:30:00.134Z,69.05
2022-12-14T23:32:46.312Z,69.07
2022-12-14T23:35:32.586Z,69.21
2022-12-14T23:38:26.719Z,69.16
2022-12-14T23:41:20.765Z,69.27
2022-12-14T23:44:08.341Z,69.40
2022-12-14T23:46:54.629Z,69.49
2022-12-14T23:49:41.422Z,69.55
2022-12-14T23:52:27.568Z,69.50
2022-12-14T23:55:13.517Z,69.37
2022-12-14T23:57:59.668Z,69.27
